Time;durP1;ratioP1;P1;durP2;ratioP2;P2;SDS_P1;SDS_P2;PMS_P1;PMS_P2;Temp;Humidity;BMP_temperature;BMP_pressure;BME280_temperature;BME280_humidity;BME280_pressure;Samples;Min_cycle;Max_cycle;Signal;HPM_P1;HPM_P2
2022/12/01 00:01:07;;;;;;;25.27;22.75;;;;;;;9.96;62.90;102595.81;4976734;28;20030;-71
2022/12/01 00:03:33;;;;;;;26.45;23.98;;;;;;;9.97;62.86;102600.19;4991233;28;20097;-70
2022/12/01 00:06:01;;;;;;;25.70;23.05;;;;;;;9.97;62.90;102596.66;4976612;28;20030;-71
2022/12/01 00:08:28;;;;;;;26.20;23.60;;;;;;;9.96;63.01;102598.53;4976048;28;20373;-71
2022/12/01 00:10:53;;;;;;;26.95;23.17;;;;;;;9.96;62.85;102590.44;4976513;28;20038;-70
2022/12/01 00:13:19;;;;;;;25.95;22.75;;;;;;;9.95;62.97;102586.06;4976671;28;20428;-72
2022/12/01 00:15:45;;;;;;;27.27;24.30;;;;;;;9.95;62.93;102591.47;4975834;28;20031;-71
2022/12/01 00:18:10;;;;;;;25.50;23.10;;;;;;;9.95;63.00;102587.91;4976332;28;20118;-74
2022/12/01 00:20:35;;;;;;;26.33;23.30;;;;;;;9.95;62.95;102590.59;4974848;28;20041;-73
2022/12/01 00:23:01;;;;;;;26.70;23.20;;;;;;;9.94;62.92;102586.25;4975747;28;20376;-72
2022/12/01 00:25:27;;;;;;;25.75;23.23;;;;;;;9.94;62.89;102587.06;4976044;28;20109;-71
2022/12/01 00:27:53;;;;;;;25.45;22.95;;;;;;;9.93;63.13;102590.81;4975358;28;20372;-71
2022/12/01 00:30:20;;;;;;;26.85;24.17;;;;;;;9.93;63.02;102590.81;4990956;28;20038;-70
2022/12/01 00:32:46;;;;;;;27.77;24.88;;;;;;;9.93;62.93;102590.81;4975670;28;20459;-74
2022/12/01 00:35:13;;;;;;;23.70;21.45;;;;;;;9.92;62.90;102581.03;4975836;28;20035;-72
2022/12/01 00:37:39;;;;;;;25.33;22.70;;;;;;;9.91;62.92;102584.78;4975738;28;20041;-71
2022/12/01 00:40:06;;;;;;;24.70;22.20;;;;;;;9.92;63.11;102583.72;4975493;28;20102;-72
2022/12/01 00:42:32;;;;;;;25.15;22.38;;;;;;;9.92;62.95;102585.59;4975417;28;20030;-77
2022/12/01 00:44:57;;;;;;;25.40;22.83;;;;;;;9.91;62.88;102592.88;4990609;28;20390;-71
2022/12/01 00:47:22;;;;;;;25.55;22.98;;;;;;;9.91;62.93;102592.03;4975780;28;20050;-73
2022/12/01 00:49:48;;;;;;;27.80;23.70;;;;;;;9.90;62.93;102593.06;4975239;28;20037;-71
2022/12/01 00:52:15;;;;;;;26.52;22.73;;;;;;;9.90;62.88;102588.50;4974927;28;20454;-71
2022/12/01 00:54:41;;;;;;;25.77;23.25;;;;;;;9.90;62.86;102585.81;4976112;28;20027;-71
2022/12/01 00:57:07;;;;;;;23.70;21.42;;;;;;;9.89;62.93;102589.53;4975165;28;20042;-72
2022/12/01 00:59:33;;;;;;;24.17;21.92;;;;;;;9.89;63.07;102586.81;4990370;28;20097;-70
2022/12/01 01:01:59;;;;;;;29.20;22.60;;;;;;;9.88;62.96;102587.88;4975248;28;20035;-70
2022/12/01 01:04:24;;;;;;;23.55;21.10;;;;;;;9.89;63.10;102589.53;4975553;28;20034;-73
2022/12/01 01:06:50;;;;;;;26.08;23.27;;;;;;;9.89;63.08;102604.88;4990458;28;20031;-71
2022/12/01 01:09:16;;;;;;;24.20;21.58;;;;;;;9.87;62.90;102591.56;4975242;28;20035;-71
2022/12/01 01:11:42;;;;;;;28.10;23.70;;;;;;;9.87;62.96;102599.66;4975113;28;20030;-70
2022/12/01 01:14:07;;;;;;;27.38;21.75;;;;;;;9.86;62.89;102600.72;4975084;28;20038;-71
2022/12/01 01:16:33;;;;;;;23.65;21.30;;;;;;;9.86;62.86;102602.59;4990125;28;20475;-72
2022/12/01 01:18:59;;;;;;;25.88;23.10;;;;;;;9.87;63.12;102604.25;4974718;28;20030;-72
2022/12/01 01:21:26;;;;;;;24.35;21.80;;;;;;;9.86;62.92;102606.09;4975028;28;20031;-72
2022/12/01 01:23:53;;;;;;;24.70;22.17;;;;;;;9.86;62.80;102608.81;4975191;28;20027;-71
2022/12/01 01:26:21;;;;;;;24.98;22.27;;;;;;;9.85;62.70;102615.25;4974693;28;20054;-73
2022/12/01 01:28:48;;;;;;;25.77;23.38;;;;;;;9.85;62.72;102620.66;4974886;28;20023;-72
2022/12/01 01:31:16;;;;;;;26.38;23.88;;;;;;;9.84;62.88;102627.06;4974592;28;20035;-72
2022/12/01 01:33:43;;;;;;;25.65;23.02;;;;;;;9.84;62.91;102623.53;4974116;28;20031;-70
2022/12/01 01:36:09;;;;;;;25.42;22.13;;;;;;;9.85;62.97;102625.19;4975313;28;20395;-72
2022/12/01 01:38:35;;;;;;;24.83;22.20;;;;;;;9.83;62.93;102622.69;4975054;28;20042;-70
2022/12/01 01:41:02;;;;;;;24.92;22.58;;;;;;;9.83;62.98;102628.09;4975416;28;20488;-72
2022/12/01 01:43:47;;;;;;;23.20;20.88;;;;;;;9.82;62.96;102626.41;4974482;28;20373;-71
2022/12/01 01:46:17;;;;;;;30.85;22.73;;;;;;;9.81;62.84;102619.34;4974932;28;20042;-70
2022/12/01 01:48:53;;;;;;;28.70;22.67;;;;;;;9.80;63.03;102625.75;4974905;28;20031;-72
2022/12/01 01:51:25;;;;;;;25.45;22.98;;;;;;;9.81;63.01;102618.50;4974666;28;20053;-70
2022/12/01 01:53:55;;;;;;;28.98;23.83;;;;;;;9.81;62.97;102618.50;4975059;28;20034;-71
2022/12/01 01:56:21;;;;;;;24.73;21.50;;;;;;;9.80;63.01;102617.66;4974588;28;20109;-71
2022/12/01 01:58:47;;;;;;;33.92;25.42;;;;;;;9.80;62.94;102612.25;4974707;28;20379;-70
2022/12/01 02:01:13;;;;;;;23.67;21.33;;;;;;;9.80;62.89;102617.66;4974289;28;20515;-70
2022/12/01 02:03:40;;;;;;;26.05;22.73;;;;;;;9.80;62.85;102616.81;4974530;28;20053;-72
2022/12/01 02:06:07;;;;;;;27.70;24.90;;;;;;;9.78;62.83;102614.34;4978240;28;20030;-70
2022/12/01 02:08:34;;;;;;;26.27;23.65;;;;;;;9.80;63.02;102623.06;4977893;28;20494;-71
2022/12/01 02:11:24;;;;;;;32.25;22.95;;;;;;;9.80;62.95;102612.25;4978340;28;20023;-71
2022/12/01 02:13:56;;;;;;;31.80;25.15;;;;;;;9.78;62.86;102619.72;4978731;28;20464;-72
2022/12/01 02:16:28;;;;;;;25.98;22.90;;;;;;;9.77;62.99;102618.03;4978409;28;20042;-70
2022/12/01 02:19:32;;;;;;;28.30;25.38;;;;;;;9.78;62.79;102629.66;4978831;28;20030;-70
2022/12/01 02:22:21;;;;;;;24.27;21.92;;;;;;;9.76;62.80;102621.78;4962767;28;20074;-73
2022/12/01 02:24:55;;;;;;;;;;;;;;;9.75;62.94;102630.88;4978829;28;20026;-71
2022/12/01 02:27:39;;;;;;;26.05;20.45;;;;;;;9.73;62.82;102623.00;4978197;28;19914;-70
2022/12/01 02:30:08;;;;;;;26.02;21.48;;;;;;;9.72;62.92;102621.31;4978379;28;20437;-72
2022/12/01 02:32:33;;;;;;;;;;;;;;;9.72;63.07;102615.09;4978456;28;20035;-72
2022/12/01 02:35:14;;;;;;;24.23;21.45;;;;;;;9.71;63.12;102624.22;4977976;28;19937;-73
2022/12/01 02:37:53;;;;;;;24.45;21.88;;;;;;;9.71;62.86;102624.22;4977996;28;20472;-72
2022/12/01 02:40:30;;;;;;;25.70;20.65;;;;;;;9.71;62.95;102618.81;4977803;28;20030;-71
2022/12/01 02:43:05;;;;;;;25.13;22.42;;;;;;;9.71;62.88;102619.66;4977894;28;20041;-71
2022/12/01 02:45:38;;;;;;;27.17;20.52;;;;;;;9.71;63.00;102619.66;4993062;28;20081;-72
2022/12/01 02:48:10;;;;;;;25.45;22.80;;;;;;;9.71;62.71;102622.34;4978037;28;20065;-72
2022/12/01 02:50:38;;;;;;;27.65;22.25;;;;;;;9.71;62.81;102619.66;4977775;28;20026;-72
2022/12/01 02:53:06;;;;;;;25.20;22.58;;;;;;;9.72;63.01;102617.78;4977951;28;20058;-72
2022/12/01 02:55:32;;;;;;;26.60;22.95;;;;;;;9.72;62.91;102617.78;4977663;28;20106;-70
2022/12/01 02:57:57;;;;;;;31.17;23.10;;;;;;;9.72;62.92;102621.31;4977838;28;20070;-71
2022/12/01 03:00:23;;;;;;;27.17;21.30;;;;;;;9.72;62.92;102620.47;4977646;28;20482;-72
2022/12/01 03:03:45;;;;;;;34.45;23.50;;;;;;;9.73;63.03;102619.47;4977498;28;20464;-77
2022/12/01 03:06:36;;;;;;;23.08;20.73;;;;;;;9.71;63.03;102619.66;4936912;29;20035;-70
2022/12/01 03:09:08;;;;;;;27.02;23.58;;;;;;;9.72;62.94;102615.09;4976066;28;20039;-72
2022/12/01 03:11:50;;;;;;;23.63;20.17;;;;;;;9.71;63.11;102613.44;4977454;28;20158;-70
2022/12/01 03:14:42;;;;;;;24.13;21.20;;;;;;;9.71;62.91;102619.66;4977313;28;20027;-71
2022/12/01 03:17:13;;;;;;;23.67;21.13;;;;;;;9.71;62.95;102621.53;4975959;28;20030;-72
2022/12/01 03:19:45;;;;;;;24.25;21.77;;;;;;;9.70;62.92;102615.28;4977559;28;20132;-72
2022/12/01 03:22:17;;;;;;;24.80;22.20;;;;;;;9.71;63.02;102616.13;4977864;28;20030;-72
2022/12/01 03:24:46;;;;;;;22.83;20.48;;;;;;;9.70;62.82;102615.28;4977718;28;20482;-72
2022/12/01 03:27:16;;;;;;;25.65;21.90;;;;;;;9.72;62.96;102617.78;4992382;28;20542;-73
2022/12/01 03:29:45;;;;;;;28.02;22.02;;;;;;;9.71;62.97;102614.25;4977068;28;20023;-71
2022/12/01 03:32:31;;;;;;;26.95;24.10;;;;;;;9.71;62.96;102613.44;4977434;28;20038;-70
2022/12/01 03:35:03;;;;;;;29.73;23.75;;;;;;;9.70;62.96;102615.28;4976929;28;20038;-74
2022/12/01 03:37:35;;;;;;;23.67;21.17;;;;;;;9.71;63.19;102624.22;4976961;28;20045;-70
2022/12/01 03:40:05;;;;;;;26.48;23.65;;;;;;;9.70;62.96;102622.53;4976879;28;20064;-70
2022/12/01 03:42:54;;;;;;;24.80;22.25;;;;;;;9.70;62.95;102618.00;4976803;28;20030;-71
2022/12/01 03:45:41;;;;;;;26.95;21.30;;;;;;;9.70;63.14;102620.69;4976801;28;20037;-71
2022/12/01 03:48:07;;;;;;;28.73;22.98;;;;;;;9.69;63.07;102624.41;4976965;28;20031;-72
2022/12/01 03:50:47;;;;;;;24.27;21.27;;;;;;;9.70;62.80;102625.22;4976968;28;20027;-70
2022/12/01 03:53:20;;;;;;;29.13;21.10;;;;;;;9.70;63.07;102630.63;4976793;28;20050;-72
2022/12/01 03:55:51;;;;;;;25.75;22.98;;;;;;;9.69;63.26;102629.78;4976023;28;20117;-73
2022/12/01 03:58:22;;;;;;;24.80;21.80;;;;;;;9.69;63.21;102621.69;4977326;28;20105;-72
2022/12/01 04:00:52;;;;;;;24.25;20.88;;;;;;;9.69;63.10;102626.25;4976531;28;20490;-71
2022/12/01 04:03:21;;;;;;;24.17;21.88;;;;;;;9.69;63.06;102626.25;4976681;28;20118;-72
2022/12/01 04:05:47;;;;;;;22.92;20.50;;;;;;;9.69;62.98;102627.09;4976629;28;20090;-70
2022/12/01 04:08:12;;;;;;;23.00;20.58;;;;;;;9.69;63.11;102624.41;4991792;28;20035;-73
2022/12/01 04:10:38;;;;;;;23.67;21.35;;;;;;;9.69;63.02;102627.09;4976064;28;20471;-72
2022/12/01 04:13:03;;;;;;;25.00;22.50;;;;;;;9.69;62.87;102626.25;4974967;28;20041;-72
2022/12/01 04:15:28;;;;;;;24.98;21.90;;;;;;;9.69;62.99;102620.88;4976230;28;20030;-74
2022/12/01 04:17:54;;;;;;;22.58;20.60;;;;;;;9.70;63.00;102619.84;4975838;28;20120;-78
2022/12/01 04:20:20;;;;;;;30.00;23.17;;;;;;;9.70;63.00;102625.22;4976349;28;20031;-72
2022/12/01 04:22:45;;;;;;;24.55;22.10;;;;;;;9.69;63.02;102618.16;4976790;28;20030;-71
2022/12/01 04:25:11;;;;;;;30.08;24.67;;;;;;;9.69;63.04;102626.25;4975674;28;20035;-72
2022/12/01 04:27:37;;;;;;;25.27;21.70;;;;;;;9.68;62.79;102624.59;4975676;28;20122;-72
2022/12/01 04:30:05;;;;;;;23.77;21.52;;;;;;;9.68;63.04;102627.31;4975170;28;20479;-71
2022/12/01 04:32:30;;;;;;;23.88;21.58;;;;;;;9.68;63.00;102622.75;4975850;28;20031;-72
2022/12/01 04:34:55;;;;;;;26.95;23.00;;;;;;;9.68;63.00;102622.75;4975857;28;20039;-76
2022/12/01 04:37:21;;;;;;;23.20;20.98;;;;;;;9.68;62.90;102613.81;4975859;28;20438;-72
2022/12/01 04:39:46;;;;;;;26.13;21.95;;;;;;;9.67;63.06;102620.22;4975740;28;20114;-71
2022/12/01 04:42:12;;;;;;;28.73;23.70;;;;;;;9.68;63.00;102619.22;4975681;28;20034;-73
2022/12/01 04:44:37;;;;;;;27.65;22.23;;;;;;;9.67;63.26;102620.22;4975600;28;20069;-71
2022/12/01 04:47:04;;;;;;;28.85;23.17;;;;;;;9.67;63.06;102621.06;4975538;28;20086;-73
2022/12/01 04:49:30;;;;;;;24.88;22.33;;;;;;;9.67;63.01;102620.22;4975567;28;20062;-73
2022/12/01 04:51:56;;;;;;;29.58;23.85;;;;;;;9.66;62.99;102616.69;4975566;28;20055;-72
2022/12/01 04:54:21;;;;;;;25.23;21.20;;;;;;;9.66;63.09;102621.25;4975607;28;20459;-70
2022/12/01 04:56:46;;;;;;;28.02;25.10;;;;;;;9.66;63.08;102624.78;4975459;28;20031;-72
2022/12/01 04:59:12;;;;;;;26.02;23.48;;;;;;;9.66;62.99;102624.78;4975396;28;20419;-72
2022/12/01 05:01:37;;;;;;;23.77;21.13;;;;;;;9.66;62.99;102619.38;4975411;28;20031;-75
2022/12/01 05:04:03;;;;;;;24.38;21.90;;;;;;;9.66;63.14;102615.88;4975556;28;20188;-70
2022/12/01 05:06:29;;;;;;;26.27;23.67;;;;;;;9.66;62.95;102618.56;4990209;28;20031;-70
2022/12/01 05:08:56;;;;;;;24.80;22.40;;;;;;;9.65;63.22;102611.47;4974131;28;20045;-70
2022/12/01 05:11:22;;;;;;;24.35;21.83;;;;;;;9.65;63.02;102623.13;4974931;28;20093;-71
2022/12/01 05:13:48;;;;;;;22.92;20.65;;;;;;;9.65;62.83;102615.03;4975132;28;20497;-72
2022/12/01 05:16:20;;;;;;;24.88;22.23;;;;;;;9.65;63.10;102622.25;4975582;28;20479;-71
2022/12/01 05:21:49;;;;;;;25.27;21.95;;;;;;;9.64;63.01;102626.00;4975566;28;20077;-70
2022/12/01 05:24:16;;;;;;;27.27;24.48;;;;;;;9.63;62.98;102622.47;4975207;28;20061;-71
2022/12/01 05:26:42;;;;;;;26.88;22.95;;;;;;;9.63;63.29;102619.78;4975049;28;20034;-72
2022/12/01 05:29:09;;;;;;;30.35;24.95;;;;;;;9.63;63.16;102625.19;4974861;28;20031;-71
2022/12/01 05:31:34;;;;;;;27.60;23.17;;;;;;;9.63;62.92;102622.47;4974640;28;20042;-72
2022/12/01 05:33:59;;;;;;;25.52;22.98;;;;;;;9.63;63.20;102627.03;4974781;28;20035;-71
2022/12/01 05:36:25;;;;;;;26.40;23.50;;;;;;;9.63;63.13;102621.66;4975260;28;20034;-71
2022/12/01 05:38:50;;;;;;;26.15;21.98;;;;;;;9.63;63.00;102622.47;4974572;28;20035;-72
2022/12/01 05:41:16;;;;;;;27.35;23.85;;;;;;;9.63;63.02;102624.34;4989671;28;20041;-73
2022/12/01 05:43:41;;;;;;;28.73;24.25;;;;;;;9.62;63.20;102626.19;4975488;28;20045;-72
2022/12/01 05:46:06;;;;;;;26.50;23.67;;;;;;;9.63;63.09;102622.47;4974377;28;20085;-74
2022/12/01 05:48:32;;;;;;;27.63;21.48;;;;;;;9.61;62.99;102624.53;4975114;28;20089;-73
2022/12/01 05:50:57;;;;;;;23.80;21.33;;;;;;;9.62;63.12;102626.19;4974406;28;20124;-73
2022/12/01 05:53:23;;;;;;;24.88;22.65;;;;;;;9.62;63.09;102628.88;4974495;28;20085;-73
2022/12/01 05:55:53;;;;;;;26.13;22.30;;;;;;;9.61;62.86;102632.63;4973422;28;20519;-73
2022/12/01 05:58:18;;;;;;;24.92;22.27;;;;;;;9.62;63.21;102644.25;4989444;28;20453;-74
2022/12/01 06:00:44;;;;;;;26.35;22.05;;;;;;;9.61;63.39;102637.19;4974856;28;20074;-74
2022/12/01 06:03:09;;;;;;;26.10;23.42;;;;;;;9.60;63.08;102641.75;4974505;28;20035;-72
2022/12/01 06:05:34;;;;;;;25.48;22.75;;;;;;;9.62;63.03;102633.44;4974489;28;20101;-75
2022/12/01 06:08:00;;;;;;;26.00;22.52;;;;;;;9.61;63.08;102634.47;4974627;28;20423;-71
2022/12/01 06:10:25;;;;;;;29.65;23.13;;;;;;;9.61;63.05;102629.91;4974757;28;20035;-73
2022/12/01 06:12:51;;;;;;;23.10;20.85;;;;;;;9.60;63.11;102628.25;4974541;28;20034;-72
2022/12/01 06:15:16;;;;;;;26.27;22.13;;;;;;;9.61;62.96;102640.72;4974473;28;20030;-71
2022/12/01 06:17:41;;;;;;;26.60;24.13;;;;;;;9.61;63.15;102637.19;4974580;28;20030;-73
2022/12/01 06:20:08;;;;;;;24.40;22.13;;;;;;;9.60;63.00;102636.34;4974696;28;20034;-77
2022/12/01 06:22:33;;;;;;;26.63;22.58;;;;;;;9.60;62.84;102636.34;4974673;28;20027;-72
2022/12/01 06:24:59;;;;;;;25.13;22.20;;;;;;;9.61;63.08;102647.97;4974480;28;20502;-72
2022/12/01 06:27:24;;;;;;;25.65;22.92;;;;;;;9.60;63.03;102635.50;4974104;28;20045;-72
2022/12/01 06:29:49;;;;;;;23.80;21.45;;;;;;;9.60;63.06;102644.44;4974438;28;20378;-73
2022/12/01 06:32:16;;;;;;;32.00;23.65;;;;;;;9.60;63.15;102640.88;4974459;28;20035;-72
2022/12/01 06:34:42;;;;;;;25.98;23.38;;;;;;;9.59;63.22;102641.94;4974165;28;20035;-71
2022/12/01 06:37:08;;;;;;;25.10;22.15;;;;;;;9.60;62.96;102638.19;4989476;28;20030;-80
2022/12/01 06:39:33;;;;;;;26.63;23.83;;;;;;;9.60;62.88;102646.28;4974376;28;20391;-72
2022/12/01 06:41:59;;;;;;;25.83;22.85;;;;;;;9.60;63.20;102646.28;4974478;28;20030;-71
2022/12/01 06:44:24;;;;;;;27.77;23.60;;;;;;;9.59;62.71;102650.03;4974730;28;20083;-71
2022/12/01 06:46:51;;;;;;;28.42;22.02;;;;;;;9.59;63.08;102652.72;4974250;28;20026;-72
2022/12/01 06:49:17;;;;;;;31.58;23.52;;;;;;;9.58;63.06;102648.34;4973093;28;20490;-71
2022/12/01 06:51:45;;;;;;;23.27;21.08;;;;;;;9.58;63.02;102651.06;4976153;28;20086;-71
2022/12/01 06:54:11;;;;;;;23.10;20.95;;;;;;;9.58;63.14;102656.44;4977715;28;20122;-81
2022/12/01 06:56:37;;;;;;;24.73;22.25;;;;;;;9.58;63.14;102659.16;4977436;28;20406;-72
2022/12/01 06:59:02;;;;;;;27.23;24.40;;;;;;;9.58;63.00;102661.84;4977992;28;20042;-71
2022/12/01 07:01:27;;;;;;;32.88;25.08;;;;;;;9.58;63.14;102659.16;4976436;28;20538;-71
2022/12/01 07:03:53;;;;;;;24.95;22.27;;;;;;;9.57;62.99;102662.84;4977639;28;20038;-73
2022/12/01 07:06:19;;;;;;;26.58;23.75;;;;;;;9.58;63.25;102667.25;4976316;28;20066;-70
2022/12/01 07:08:45;;;;;;;26.20;23.30;;;;;;;9.57;63.13;102674.47;4977777;28;20073;-72
2022/12/01 07:11:12;;;;;;;27.08;24.45;;;;;;;9.56;63.10;102667.44;4977549;28;20111;-72
2022/12/01 07:13:38;;;;;;;26.30;23.55;;;;;;;9.57;63.16;102668.25;4977223;28;20032;-80
2022/12/01 07:16:05;;;;;;;31.52;23.42;;;;;;;9.55;63.24;102671.16;4992946;28;20193;-72
2022/12/01 07:18:31;;;;;;;27.02;24.30;;;;;;;9.53;63.29;102675.91;4976981;28;20053;-72
2022/12/01 07:21:01;;;;;;;27.75;23.50;;;;;;;9.51;63.29;102678.78;4977358;28;20085;-73
2022/12/01 07:23:27;;;;;;;31.73;25.27;;;;;;;9.50;63.38;102673.59;4977253;28;20030;-73
2022/12/01 07:26:07;;;;;;;28.10;25.15;;;;;;;9.50;63.27;102673.59;4977210;28;20498;-70
2022/12/01 07:28:33;;;;;;;33.50;26.40;;;;;;;9.49;63.17;102671.91;4977725;28;20088;-72
2022/12/01 07:31:16;;;;;;;32.33;24.75;;;;;;;9.48;63.10;102679.16;4992054;28;20523;-73
2022/12/01 07:33:42;;;;;;;27.50;23.23;;;;;;;9.48;63.28;102683.72;4977301;28;20019;-73
2022/12/01 07:36:08;;;;;;;27.73;23.08;;;;;;;9.48;63.33;102679.16;4977059;28;20468;-73
2022/12/01 07:38:34;;;;;;;30.40;25.95;;;;;;;9.50;63.19;102687.06;4976955;28;20549;-75
2022/12/01 07:41:04;;;;;;;32.97;25.23;;;;;;;9.49;63.16;102686.22;4977116;28;20034;-72
2022/12/01 07:43:31;;;;;;;28.58;25.52;;;;;;;9.50;63.10;102687.91;4976834;28;20034;-73
2022/12/01 07:46:03;;;;;;;26.60;22.30;;;;;;;9.50;63.27;102690.59;4977378;28;20027;-73
2022/12/01 07:48:28;;;;;;;29.08;24.58;;;;;;;9.51;63.29;102688.72;4977582;28;20035;-73
2022/12/01 07:50:54;;;;;;;28.52;24.48;;;;;;;9.51;63.32;102694.13;4976828;28;20037;-73
2022/12/01 07:53:19;;;;;;;28.23;25.05;;;;;;;9.52;63.28;102695.78;4977117;28;20082;-75
2022/12/01 07:55:49;;;;;;;29.33;22.23;;;;;;;9.51;63.12;102697.66;4976712;28;20114;-72
2022/12/01 07:58:15;;;;;;;25.75;23.10;;;;;;;9.51;63.42;102694.97;4977490;28;20035;-72
2022/12/01 08:00:40;;;;;;;28.13;22.60;;;;;;;9.52;63.21;102690.41;4975925;28;20487;-73
2022/12/01 08:03:05;;;;;;;27.55;22.73;;;;;;;9.52;63.22;102693.97;4990655;28;20104;-74
2022/12/01 08:05:31;;;;;;;29.27;23.42;;;;;;;9.53;63.14;102700.19;4991440;28;20062;-72
2022/12/01 08:07:56;;;;;;;27.85;22.85;;;;;;;9.53;63.13;102705.56;4976328;28;20521;-71
2022/12/01 08:10:21;;;;;;;31.63;25.17;;;;;;;9.53;63.27;102706.41;4976333;28;20502;-73
2022/12/01 08:12:47;;;;;;;27.73;23.35;;;;;;;9.53;63.11;102706.41;4975914;28;20037;-77
2022/12/01 08:15:12;;;;;;;31.73;23.83;;;;;;;9.53;63.11;102706.41;4976242;28;20042;-73
2022/12/01 08:17:38;;;;;;;26.35;23.58;;;;;;;9.53;63.19;102711.81;4976152;28;20038;-75
2022/12/01 08:20:04;;;;;;;27.20;24.33;;;;;;;9.53;63.10;102717.19;4975587;28;20043;-73
2022/12/01 08:22:31;;;;;;;27.15;22.92;;;;;;;9.54;63.18;102718.03;4974521;28;20055;-72
2022/12/01 08:24:56;;;;;;;29.65;22.88;;;;;;;9.54;63.21;102715.34;4975983;28;20114;-75
2022/12/01 08:27:22;;;;;;;31.83;25.17;;;;;;;9.53;63.17;102717.19;4976346;28;20118;-75
2022/12/01 08:29:47;;;;;;;25.52;22.80;;;;;;;9.54;63.13;102716.16;4974838;28;20030;-74
2022/12/01 08:32:12;;;;;;;25.45;22.83;;;;;;;9.54;63.06;102707.22;4976011;28;20034;-72
2022/12/01 08:34:38;;;;;;;26.77;24.00;;;;;;;9.54;63.17;102704.53;4975798;28;20165;-72
2022/12/01 08:37:03;;;;;;;25.85;23.25;;;;;;;9.55;63.12;102706.22;4990871;28;20042;-74
2022/12/01 08:39:28;;;;;;;29.52;25.42;;;;;;;9.55;63.12;102706.22;4976044;28;20035;-73
2022/12/01 08:41:54;;;;;;;26.27;22.13;;;;;;;9.55;62.95;102714.31;4990546;28;20035;-73
2022/12/01 08:44:19;;;;;;;28.27;21.98;;;;;;;9.54;63.27;102710.75;4975148;28;20114;-78
2022/12/01 08:46:44;;;;;;;28.83;22.60;;;;;;;9.55;63.20;102722.41;4974587;28;20482;-72
2022/12/01 08:49:10;;;;;;;24.35;21.77;;;;;;;9.53;63.05;102725.28;4975902;28;20167;-72
2022/12/01 08:51:35;;;;;;;25.65;23.02;;;;;;;9.54;62.97;102726.13;4975618;28;20128;-73
2022/12/01 08:54:01;;;;;;;25.13;22.10;;;;;;;9.54;63.19;102726.94;4975457;28;20174;-75
2022/12/01 08:56:29;;;;;;;25.63;23.00;;;;;;;9.54;63.35;102732.34;4975396;28;20042;-72
2022/12/01 08:58:54;;;;;;;27.40;23.55;;;;;;;9.54;62.94;102735.03;4975518;28;20070;-72
2022/12/01 09:01:20;;;;;;;26.80;21.83;;;;;;;9.54;63.17;102729.66;4976277;28;20385;-73
2022/12/01 09:03:46;;;;;;;25.05;22.40;;;;;;;9.54;63.72;102729.66;4975363;28;20038;-72
2022/12/01 09:06:14;;;;;;;28.65;23.60;;;;;;;9.56;63.12;102728.66;4975399;28;20383;-73
2022/12/01 09:08:40;;;;;;;;;;;;;;;9.53;63.03;102738.78;4974303;28;20053;-74
2022/12/01 09:11:10;;;;;;;25.75;22.50;;;;;;;9.52;63.00;102734.41;4975849;28;20338;-79
2022/12/01 09:13:38;;;;;;;34.05;23.85;;;;;;;9.52;63.03;102737.13;4990329;28;20086;-73
2022/12/01 09:16:06;;;;;;;26.05;23.38;;;;;;;9.53;63.26;102743.34;4974544;28;20030;-75
2022/12/01 09:18:33;;;;;;;27.67;23.67;;;;;;;9.53;63.38;102740.66;4974847;28;20074;-73
2022/12/01 09:20:59;;;;;;;26.40;23.70;;;;;;;9.53;63.13;102741.47;4975064;28;20034;-73
2022/12/01 09:23:24;;;;;;;25.95;23.20;;;;;;;9.53;63.19;102741.47;4974902;28;20081;-80
2022/12/01 09:25:51;;;;;;;31.77;23.65;;;;;;;9.53;63.23;102746.03;4975406;28;20542;-76
2022/12/01 09:28:16;;;;;;;25.92;23.08;;;;;;;9.53;63.13;102746.88;4973613;28;20371;-81
2022/12/01 09:30:43;;;;;;;32.08;25.02;;;;;;;9.53;63.06;102744.19;4974787;28;20039;-73
2022/12/01 09:33:08;;;;;;;29.80;23.13;;;;;;;9.52;63.07;102742.50;4974037;28;20037;-72
2022/12/01 09:35:34;;;;;;;30.77;25.55;;;;;;;9.53;62.99;102746.03;4974322;28;20039;-75
2022/12/01 09:37:59;;;;;;;27.05;22.95;;;;;;;9.52;63.26;102742.50;4974691;28;20122;-74
2022/12/01 09:40:30;;;;;;;27.85;24.83;;;;;;;9.52;63.07;102741.66;4989499;28;20035;-82
2022/12/01 09:42:59;;;;;;;25.33;22.42;;;;;;;9.52;63.11;102744.34;4974957;28;20030;-72
2022/12/01 09:45:30;;;;;;;33.38;23.75;;;;;;;9.52;63.03;102749.75;4974316;28;20110;-73
2022/12/01 09:47:58;;;;;;;25.70;23.17;;;;;;;9.51;63.13;102746.22;4974955;28;20041;-74
2022/12/01 09:50:26;;;;;;;24.88;22.33;;;;;;;9.53;62.91;102746.03;4974584;28;20070;-72
2022/12/01 09:53:15;;;;;;;25.92;23.13;;;;;;;9.52;63.36;102733.56;4973466;28;20062;-73
2022/12/01 09:55:41;;;;;;;33.03;24.40;;;;;;;9.52;63.00;102734.41;4974908;28;20071;-70
2022/12/01 09:58:15;;;;;;;24.92;22.42;;;;;;;9.52;63.29;102734.41;4989699;28;20494;-75
2022/12/01 10:00:42;;;;;;;26.95;23.17;;;;;;;9.50;63.11;102731.06;4974619;28;20041;-72
2022/12/01 10:03:08;;;;;;;27.77;24.30;;;;;;;9.50;63.01;102728.38;4974375;28;20391;-72
2022/12/01 10:05:58;;;;;;;28.05;24.92;;;;;;;9.50;63.11;102725.66;4989646;28;20086;-73
2022/12/01 10:08:30;;;;;;;29.80;24.92;;;;;;;9.51;63.13;102721.09;4974568;28;20124;-73
2022/12/01 10:11:05;;;;;;;27.95;22.67;;;;;;;9.50;63.25;102716.75;4974705;28;20037;-73
2022/12/01 10:13:32;;;;;;;32.85;23.95;;;;;;;9.50;63.52;102719.44;4974272;28;20102;-74
2022/12/01 10:16:17;;;;;;;25.83;23.15;;;;;;;9.49;63.07;102723.97;4974608;28;20031;-72
2022/12/01 10:19:00;;;;;;;28.55;23.70;;;;;;;9.47;63.00;102709.00;4973707;28;20094;-72
2022/12/01 10:21:43;;;;;;;28.13;25.23;;;;;;;9.48;63.23;102716.91;4974980;28;20035;-74
2022/12/01 10:24:31;;;;;;;25.23;22.70;;;;;;;9.46;63.11;102712.75;4974547;28;20026;-74
2022/12/01 10:27:20;;;;;;;26.52;21.65;;;;;;;9.46;63.03;102712.75;4977667;28;20034;-74
2022/12/01 10:29:47;;;;;;;30.15;22.88;;;;;;;9.45;63.26;102711.91;4978311;28;20459;-74
2022/12/01 10:32:29;;;;;;;27.40;21.45;;;;;;;9.46;63.26;102718.13;4978018;28;20170;-72
2022/12/01 10:34:56;;;;;;;29.75;22.00;;;;;;;9.46;63.31;102715.44;4976388;28;20026;-72
2022/12/01 10:37:26;;;;;;;26.15;22.67;;;;;;;9.44;63.16;102715.63;4977917;28;20046;-75
2022/12/01 10:39:54;;;;;;;26.70;21.83;;;;;;;9.46;63.42;102704.66;4978091;28;20034;-72
2022/12/01 10:42:39;;;;;;;29.83;24.15;;;;;;;9.46;63.46;102708.19;4978016;28;20027;-71
2022/12/01 10:45:14;;;;;;;24.95;22.33;;;;;;;9.46;63.27;102710.03;4992653;28;20118;-74
2022/12/01 10:48:14;;;;;;;29.73;23.67;;;;;;;9.46;63.41;102705.47;4977654;28;20030;-74
2022/12/01 10:50:47;;;;;;;26.33;23.58;;;;;;;9.48;63.32;102713.41;4978347;28;20019;-73
2022/12/01 10:53:21;;;;;;;30.77;23.10;;;;;;;9.48;63.04;102713.41;4991999;28;20403;-74
2022/12/01 10:55:49;;;;;;;25.38;22.35;;;;;;;9.47;63.33;102709.84;4977489;28;20383;-73
2022/12/01 10:58:17;;;;;;;27.73;22.55;;;;;;;9.47;63.18;102715.22;4977538;28;20531;-71
2022/12/01 11:00:53;;;;;;;26.83;23.77;;;;;;;9.48;63.36;102711.53;4977424;28;20037;-73
2022/12/01 11:03:22;;;;;;;29.83;24.13;;;;;;;9.49;63.31;102709.66;4976828;28;20274;-73
2022/12/01 11:06:06;;;;;;;28.73;23.20;;;;;;;9.50;63.09;102708.66;4977339;28;20499;-73
2022/12/01 11:08:45;;;;;;;26.50;23.73;;;;;;;9.51;63.01;102703.06;4977794;28;20060;-78
2022/12/01 11:11:30;;;;;;;26.52;22.67;;;;;;;9.52;63.47;102703.88;4976740;28;20031;-72
2022/12/01 11:13:59;;;;;;;28.25;21.90;;;;;;;9.51;63.14;102711.16;4977116;28;20062;-71
2022/12/01 11:16:52;;;;;;;23.90;21.08;;;;;;;9.52;63.22;102711.97;4977163;28;20399;-73
2022/12/01 11:19:26;;;;;;;25.98;21.70;;;;;;;9.54;63.18;102709.94;4975770;28;20133;-73
2022/12/01 11:21:55;;;;;;;26.33;23.75;;;;;;;9.55;63.34;102695.44;4977091;28;20077;-72
2022/12/01 11:24:26;;;;;;;28.42;22.65;;;;;;;9.55;63.09;102700.84;4977004;28;20062;-72
2022/12/01 11:26:52;;;;;;;24.92;22.27;;;;;;;9.56;63.33;102697.09;4976961;28;20110;-72
2022/12/01 11:29:35;;;;;;;25.50;21.70;;;;;;;9.57;63.19;102687.97;4976866;28;20089;-72